Rayne, Louisiana
Current Conditions -  °F | °C
As of 9:53 PM on Friday 28 Nov 2014 (Local Time) from KLFT Reporting Station
Clear Clear  
Wind Chill: 53°   Ceiling: Unl
Heat Index: 53°   Visibility: 10mi
Dew Point: 48°   Wind: 6mph
Humidity: 83%   Direction: 160°SSE
Pressure: 30.23"   Gusts: NA
Location:  30.24°N, 92.27°W
Report Text: KLFT 290353Z AUTO 16005KT 10SM CLR 12/09 A3023 RMK AO2 SLP235 T01170089
Loading
Personal Weather Stations






























Interactive Weather Map New forecast layout! Learn more

10-Day Weather Forecast

Advertisements
Track Severe Weather on mobile